createdAt,value
2017-09-29T00:00:25.418Z,25.50
2017-09-29T00:02:53.363Z,24.70
2017-09-29T00:05:20.891Z,27.77
2017-09-29T00:07:48.809Z,23.90
2017-09-29T00:10:16.340Z,24.73
2017-09-29T00:12:43.858Z,25.70
2017-09-29T00:15:11.792Z,23.47
2017-09-29T00:17:40.419Z,24.87
2017-09-29T00:20:07.951Z,27.10
2017-09-29T00:22:35.870Z,28.00
2017-09-29T00:25:03.410Z,24.87
2017-09-29T00:27:30.930Z,25.60
2017-09-29T00:29:58.467Z,25.00
2017-09-29T00:32:25.984Z,26.50
2017-09-29T00:34:53.914Z,25.27
2017-09-29T00:37:21.450Z,25.83
2017-09-29T00:39:49.364Z,24.70
2017-09-29T00:42:16.902Z,26.00
2017-09-29T00:44:44.423Z,27.77
2017-09-29T00:47:12.348Z,27.83
2017-09-29T00:49:40.527Z,26.43
2017-09-29T00:52:10.092Z,25.90
2017-09-29T00:54:38.079Z,26.60
2017-09-29T00:57:05.680Z,26.40
2017-09-29T00:59:33.218Z,24.33
2017-09-29T01:02:00.759Z,28.63
2017-09-29T01:04:28.283Z,28.27
2017-09-29T01:06:55.804Z,26.60
2017-09-29T01:09:23.728Z,25.43
2017-09-29T01:11:51.245Z,28.70
2017-09-29T01:14:18.780Z,24.80
2017-09-29T01:16:46.304Z,27.70
2017-09-29T01:19:13.848Z,28.93
2017-09-29T01:21:41.762Z,27.57
2017-09-29T01:24:10.771Z,25.97
2017-09-29T01:26:39.293Z,26.70
2017-09-29T01:29:07.222Z,31.13
2017-09-29T01:31:34.761Z,30.87
2017-09-29T01:34:02.280Z,33.60
2017-09-29T01:36:29.824Z,36.40
2017-09-29T01:38:57.343Z,34.33
2017-09-29T01:41:24.901Z,36.57
2017-09-29T01:43:52.421Z,38.17
2017-09-29T01:46:19.939Z,38.63
2017-09-29T01:48:47.467Z,35.63
2017-09-29T01:51:15.380Z,32.67
2017-09-29T01:53:42.913Z,33.73
2017-09-29T01:56:11.579Z,33.30
2017-09-29T01:58:40.141Z,33.70
2017-09-29T02:01:07.655Z,37.57
2017-09-29T02:03:35.188Z,38.13
2017-09-29T02:06:02.720Z,38.10
2017-09-29T02:08:30.280Z,45.37
2017-09-29T02:10:57.800Z,40.40
2017-09-29T02:13:25.714Z,35.57
2017-09-29T02:15:53.242Z,38.83
2017-09-29T02:18:20.763Z,40.83
2017-09-29T02:20:48.695Z,45.47
2017-09-29T02:23:16.212Z,43.33
2017-09-29T02:25:43.747Z,43.00
2017-09-29T02:28:11.269Z,42.93
2017-09-29T02:30:38.812Z,38.27
2017-09-29T02:33:06.331Z,44.77
2017-09-29T02:35:33.859Z,44.77
2017-09-29T02:38:01.787Z,44.70
2017-09-29T02:40:29.307Z,50.40
2017-09-29T02:42:56.847Z,48.23
2017-09-29T02:45:24.375Z,54.97
2017-09-29T02:47:51.917Z,52.93
2017-09-29T02:50:19.434Z,61.13
2017-09-29T02:52:46.956Z,63.30
2017-09-29T02:55:14.489Z,66.50
2017-09-29T02:57:43.470Z,70.17
2017-09-29T03:00:12.172Z,64.07
2017-09-29T03:02:40.777Z,64.30
2017-09-29T03:05:11.755Z,58.40
2017-09-29T03:07:40.156Z,58.17
2017-09-29T03:10:07.708Z,53.77
2017-09-29T03:12:35.231Z,55.20
2017-09-29T03:15:02.763Z,52.67
2017-09-29T03:17:30.288Z,56.03
2017-09-29T03:19:57.833Z,57.07
2017-09-29T03:22:25.772Z,57.50
2017-09-29T03:24:53.291Z,58.37
2017-09-29T03:27:20.831Z,55.53
2017-09-29T03:29:48.355Z,55.20
2017-09-29T03:32:15.897Z,56.73
2017-09-29T03:34:43.415Z,57.20
2017-09-29T03:37:10.951Z,61.23
2017-09-29T03:39:38.475Z,61.87
2017-09-29T03:42:06.007Z,56.17
2017-09-29T03:44:33.523Z,58.83
2017-09-29T03:47:01.083Z,50.97
2017-09-29T03:49:28.595Z,55.47
2017-09-29T03:51:56.652Z,50.10
2017-09-29T03:54:25.697Z,51.17
2017-09-29T03:56:54.508Z,51.83
2017-09-29T03:59:22.808Z,53.13
2017-09-29T04:01:50.744Z,52.57
2017-09-29T04:04:18.292Z,54.83
2017-09-29T04:06:45.811Z,52.53
2017-09-29T04:09:13.340Z,56.87
2017-09-29T04:11:41.272Z,58.20
2017-09-29T04:14:08.784Z,62.73
2017-09-29T04:16:36.318Z,66.40
2017-09-29T04:19:04.228Z,60.80
2017-09-29T04:21:31.764Z,66.10
2017-09-29T04:23:59.278Z,59.47
2017-09-29T04:26:27.207Z,60.77
2017-09-29T04:28:54.727Z,63.17
2017-09-29T04:31:22.259Z,58.30
2017-09-29T04:33:49.786Z,58.80
2017-09-29T04:36:17.340Z,61.33
2017-09-29T04:38:44.856Z,55.73
2017-09-29T04:41:12.377Z,62.30
2017-09-29T04:43:41.423Z,58.50
2017-09-29T04:46:09.988Z,60.03
2017-09-29T04:48:37.530Z,61.70
2017-09-29T04:51:05.455Z,56.10
2017-09-29T04:53:32.990Z,53.70
2017-09-29T04:56:00.506Z,56.30
2017-09-29T04:58:28.055Z,57.90
2017-09-29T05:00:55.571Z,64.70
2017-09-29T05:03:23.488Z,54.97
2017-09-29T05:05:51.023Z,46.30
2017-09-29T05:08:18.538Z,54.10
2017-09-29T05:10:46.471Z,50.90
2017-09-29T05:13:13.987Z,48.23
2017-09-29T05:15:41.521Z,52.50
2017-09-29T05:18:09.709Z,52.07
2017-09-29T05:20:37.249Z,47.67
2017-09-29T05:23:04.775Z,51.53
2017-09-29T05:25:32.292Z,47.43
2017-09-29T05:27:59.828Z,53.70
2017-09-29T05:30:27.741Z,50.53
2017-09-29T05:32:55.267Z,48.37
2017-09-29T05:35:22.783Z,44.77
2017-09-29T05:37:50.315Z,48.10
2017-09-29T05:40:17.832Z,46.00
2017-09-29T05:42:45.396Z,53.03
2017-09-29T05:45:12.910Z,47.43
2017-09-29T05:47:41.308Z,42.30
2017-09-29T05:50:08.891Z,47.43
2017-09-29T05:52:36.411Z,44.53
2017-09-29T05:55:03.947Z,40.80
2017-09-29T05:57:31.466Z,43.53
2017-09-29T05:59:58.999Z,44.33
2017-09-29T06:02:26.909Z,45.40
2017-09-29T06:04:54.452Z,46.87
2017-09-29T06:07:21.970Z,39.27
2017-09-29T06:09:49.524Z,41.80
2017-09-29T06:12:17.039Z,46.30
2017-09-29T06:14:44.565Z,46.83
2017-09-29T06:17:12.111Z,43.50
2017-09-29T06:19:40.475Z,45.20
2017-09-29T06:22:08.008Z,37.10
2017-09-29T06:24:35.543Z,40.30
2017-09-29T06:27:03.086Z,39.87
2017-09-29T06:29:30.605Z,41.13
2017-09-29T06:31:58.152Z,39.60
2017-09-29T06:34:25.676Z,33.53
2017-09-29T06:36:53.199Z,37.87
2017-09-29T06:39:20.733Z,37.07
2017-09-29T06:41:48.252Z,35.50
2017-09-29T06:44:16.184Z,34.43
2017-09-29T06:46:43.705Z,34.23
2017-09-29T06:49:11.235Z,39.00
2017-09-29T06:51:39.430Z,41.10
2017-09-29T06:54:06.982Z,33.27
2017-09-29T06:56:34.503Z,31.50
2017-09-29T06:59:02.058Z,34.20
2017-09-29T07:01:29.969Z,34.40
2017-09-29T07:03:57.484Z,36.03
2017-09-29T07:06:25.027Z,35.93
2017-09-29T07:08:52.944Z,37.90
2017-09-29T07:11:20.485Z,32.10
2017-09-29T07:13:48.006Z,31.30
2017-09-29T07:16:15.544Z,27.40
2017-09-29T07:18:43.055Z,30.63
2017-09-29T07:21:10.983Z,25.70
2017-09-29T07:23:39.694Z,26.37
2017-09-29T07:26:10.031Z,26.57
2017-09-29T07:28:39.688Z,27.00
2017-09-29T07:31:07.552Z,27.10
2017-09-29T07:33:35.122Z,26.53
2017-09-29T07:36:02.666Z,24.40
2017-09-29T07:38:30.196Z,20.67
2017-09-29T07:40:57.713Z,22.17
2017-09-29T07:43:25.243Z,18.90
2017-09-29T07:45:52.777Z,18.73
2017-09-29T07:48:20.727Z,18.57
2017-09-29T07:50:48.244Z,20.83
2017-09-29T07:53:16.161Z,26.13
2017-09-29T07:55:43.695Z,20.70
2017-09-29T07:58:11.222Z,16.20
2017-09-29T08:00:38.788Z,16.20
2017-09-29T08:03:06.703Z,15.93
2017-09-29T08:05:34.639Z,15.73
2017-09-29T08:08:02.155Z,15.97
2017-09-29T08:10:29.692Z,15.57
2017-09-29T08:12:57.208Z,15.40
2017-09-29T08:15:24.764Z,17.67
2017-09-29T08:17:52.286Z,15.33
2017-09-29T08:20:19.825Z,10.90
2017-09-29T08:22:47.757Z,12.97
2017-09-29T08:25:15.264Z,12.77
2017-09-29T08:27:42.795Z,13.50
2017-09-29T08:30:11.359Z,11.20
2017-09-29T08:32:40.048Z,12.23
2017-09-29T08:35:07.560Z,9.23
2017-09-29T08:37:35.067Z,10.60
2017-09-29T08:40:02.588Z,9.37
2017-09-29T08:42:30.495Z,11.57
2017-09-29T08:44:58.016Z,9.10
2017-09-29T08:47:25.528Z,8.30
2017-09-29T08:49:53.480Z,11.03
2017-09-29T08:52:20.989Z,9.33
2017-09-29T08:54:48.519Z,8.67
2017-09-29T08:57:16.028Z,10.40
2017-09-29T08:59:43.539Z,10.93
2017-09-29T09:02:11.064Z,10.17
2017-09-29T09:04:39.370Z,10.17
2017-09-29T09:07:06.891Z,8.77
2017-09-29T09:09:34.400Z,9.77
2017-09-29T09:12:01.924Z,9.60
2017-09-29T09:14:29.440Z,9.53
2017-09-29T09:16:56.956Z,8.77
2017-09-29T09:19:24.464Z,11.47
2017-09-29T09:21:52.008Z,8.33
2017-09-29T09:24:19.519Z,8.03
2017-09-29T09:26:47.027Z,9.83
2017-09-29T09:29:14.948Z,8.57
2017-09-29T09:31:42.456Z,9.83
2017-09-29T09:34:10.995Z,8.53
2017-09-29T09:36:39.678Z,7.60
2017-09-29T09:39:07.201Z,9.50
2017-09-29T09:41:34.713Z,6.97
2017-09-29T09:44:02.243Z,8.70
2017-09-29T09:46:29.751Z,9.67
2017-09-29T09:48:57.252Z,7.93
2017-09-29T09:51:24.784Z,8.20
2017-09-29T09:53:52.295Z,8.97
2017-09-29T09:56:19.824Z,9.00
2017-09-29T09:58:47.331Z,9.03
2017-09-29T10:01:14.854Z,10.00
2017-09-29T10:03:42.355Z,9.33
2017-09-29T10:06:10.325Z,8.67
2017-09-29T10:08:37.831Z,8.80
2017-09-29T10:11:05.759Z,7.27
2017-09-29T10:13:33.283Z,5.70
2017-09-29T10:16:00.798Z,6.30
2017-09-29T10:18:28.719Z,8.43
2017-09-29T10:20:56.223Z,6.10
2017-09-29T10:23:23.755Z,5.40
2017-09-29T10:25:51.650Z,5.57
2017-09-29T10:28:19.592Z,6.80
2017-09-29T10:30:47.103Z,6.13
2017-09-29T10:33:14.599Z,5.33
2017-09-29T10:35:42.135Z,6.43
2017-09-29T10:38:10.680Z,7.40
2017-09-29T10:40:38.207Z,10.80
2017-09-29T10:43:05.735Z,6.67
2017-09-29T10:45:33.272Z,5.87
2017-09-29T10:48:01.180Z,6.23
2017-09-29T10:50:28.703Z,5.60
2017-09-29T10:52:56.215Z,7.07
2017-09-29T10:55:23.742Z,4.60
2017-09-29T10:57:51.260Z,6.63
2017-09-29T11:00:18.791Z,6.77
2017-09-29T11:02:46.695Z,5.17
2017-09-29T11:05:14.253Z,5.63
2017-09-29T11:07:42.167Z,10.20
2017-09-29T11:10:09.713Z,4.83
2017-09-29T11:12:37.251Z,5.30
2017-09-29T11:15:04.759Z,6.43
2017-09-29T11:17:32.284Z,5.27
2017-09-29T11:20:00.192Z,7.43
2017-09-29T11:22:27.724Z,6.60
2017-09-29T11:24:55.235Z,5.67
2017-09-29T11:27:22.776Z,6.83
2017-09-29T11:29:50.283Z,5.00
2017-09-29T11:32:17.792Z,6.27
2017-09-29T11:34:45.326Z,7.97
2017-09-29T11:37:12.831Z,6.70
2017-09-29T11:39:40.940Z,5.30
2017-09-29T11:42:08.455Z,5.10
2017-09-29T11:44:36.014Z,5.53
2017-09-29T11:47:03.522Z,5.77
2017-09-29T11:49:31.036Z,7.27
2017-09-29T11:51:58.584Z,6.53
2017-09-29T11:54:26.096Z,4.63
2017-09-29T11:56:54.016Z,5.60
2017-09-29T11:59:21.520Z,5.50
2017-09-29T12:01:49.056Z,6.93
2017-09-29T12:04:16.961Z,5.03
2017-09-29T12:06:44.503Z,10.30
2017-09-29T12:09:12.007Z,6.10
2017-09-29T12:11:40.923Z,5.73
2017-09-29T12:14:09.679Z,4.80
2017-09-29T12:16:37.255Z,6.20
2017-09-29T12:19:05.175Z,4.07
2017-09-29T12:21:32.687Z,4.20
2017-09-29T12:24:00.224Z,4.37
2017-09-29T12:26:27.732Z,5.67
2017-09-29T12:28:55.282Z,3.03
2017-09-29T12:31:23.189Z,2.70
2017-09-29T12:33:51.099Z,3.73
2017-09-29T12:36:18.627Z,2.80
2017-09-29T12:38:46.134Z,4.70
2017-09-29T12:41:13.677Z,4.30
2017-09-29T12:43:41.237Z,4.83
2017-09-29T12:46:08.760Z,4.90
2017-09-29T12:48:36.308Z,4.93
2017-09-29T12:51:03.824Z,4.57
2017-09-29T12:53:31.340Z,4.20
2017-09-29T12:55:59.252Z,4.20
2017-09-29T12:58:26.782Z,8.63
2017-09-29T13:00:54.283Z,4.47
2017-09-29T13:03:21.842Z,5.30
2017-09-29T13:05:49.352Z,4.00
2017-09-29T13:08:16.857Z,5.47
2017-09-29T13:10:44.384Z,7.00
2017-09-29T13:13:11.896Z,5.90
2017-09-29T13:15:41.318Z,5.87
2017-09-29T13:18:08.827Z,6.07
2017-09-29T13:20:36.350Z,3.50
2017-09-29T13:23:03.864Z,5.60
2017-09-29T13:25:31.403Z,4.97
2017-09-29T13:27:58.912Z,5.10
2017-09-29T13:30:26.419Z,4.13
2017-09-29T13:32:53.952Z,3.83
2017-09-29T13:35:21.852Z,4.90
2017-09-29T13:37:49.768Z,6.10
2017-09-29T13:40:17.283Z,8.70
2017-09-29T13:42:44.807Z,4.27
2017-09-29T13:45:12.315Z,4.97
2017-09-29T13:47:39.841Z,4.70
2017-09-29T13:50:07.351Z,4.33
2017-09-29T13:52:34.893Z,7.70
2017-09-29T13:55:02.408Z,4.70
2017-09-29T13:57:29.979Z,7.30
2017-09-29T13:59:57.536Z,6.03
2017-09-29T14:02:25.055Z,3.80
2017-09-29T14:04:52.571Z,4.97
2017-09-29T14:07:20.092Z,8.93
2017-09-29T14:09:47.623Z,5.60
2017-09-29T14:12:15.131Z,4.93
2017-09-29T14:14:43.075Z,6.53
2017-09-29T14:17:12.127Z,6.93
2017-09-29T14:19:40.526Z,5.30
2017-09-29T14:22:08.057Z,4.50
2017-09-29T14:24:35.630Z,5.13
2017-09-29T14:27:03.546Z,5.03
2017-09-29T14:29:31.055Z,5.80
2017-09-29T14:31:58.592Z,7.90
2017-09-29T14:34:26.102Z,4.40
2017-09-29T14:36:54.011Z,10.13
2017-09-29T14:39:21.538Z,7.90
2017-09-29T14:41:49.047Z,5.23
2017-09-29T14:44:16.567Z,5.87
2017-09-29T14:46:44.075Z,4.43
2017-09-29T14:49:11.590Z,5.30
2017-09-29T14:51:40.403Z,11.10
2017-09-29T14:54:07.943Z,4.87
2017-09-29T14:56:35.476Z,9.80
2017-09-29T14:59:02.988Z,4.20
2017-09-29T15:01:30.922Z,6.63
2017-09-29T15:03:58.488Z,6.13
2017-09-29T15:06:26.011Z,5.00
2017-09-29T15:08:53.519Z,6.50
2017-09-29T15:11:21.055Z,4.50
2017-09-29T15:13:48.567Z,5.50
2017-09-29T15:16:16.111Z,6.07
2017-09-29T15:18:43.619Z,4.83
2017-09-29T15:21:11.132Z,5.70
2017-09-29T15:23:39.276Z,7.60
2017-09-29T15:26:07.176Z,5.07
2017-09-29T15:28:34.715Z,7.03
2017-09-29T15:31:02.232Z,7.73
2017-09-29T15:33:29.768Z,6.23
2017-09-29T15:35:57.283Z,6.87
2017-09-29T15:38:24.824Z,4.30
2017-09-29T15:40:52.344Z,5.67
2017-09-29T15:43:19.843Z,5.53
2017-09-29T15:45:47.371Z,5.03
2017-09-29T15:48:14.876Z,6.27
2017-09-29T15:50:42.404Z,5.83
2017-09-29T15:53:10.424Z,6.50
2017-09-29T15:55:38.347Z,4.20
2017-09-29T15:58:05.884Z,6.27
2017-09-29T16:00:33.427Z,5.83
2017-09-29T16:03:00.942Z,6.67
2017-09-29T16:05:28.442Z,6.03
2017-09-29T16:07:55.967Z,5.07
2017-09-29T16:10:23.474Z,6.50
2017-09-29T16:12:51.123Z,7.87
2017-09-29T16:15:18.630Z,5.87
2017-09-29T16:17:46.155Z,7.97
2017-09-29T16:20:13.663Z,4.80
2017-09-29T16:22:41.202Z,6.60
2017-09-29T16:25:08.746Z,7.53
2017-09-29T16:27:36.311Z,5.77
2017-09-29T16:30:04.234Z,4.90
2017-09-29T16:32:31.746Z,5.20
2017-09-29T16:34:59.413Z,4.97
2017-09-29T16:37:26.940Z,6.20
2017-09-29T16:39:54.464Z,4.93
2017-09-29T16:42:22.379Z,4.73
2017-09-29T16:44:50.086Z,5.80
2017-09-29T16:47:17.590Z,6.47
2017-09-29T16:49:45.106Z,4.97
2017-09-29T16:52:12.627Z,3.90
2017-09-29T16:54:41.266Z,6.10
2017-09-29T16:57:08.792Z,4.37
2017-09-29T16:59:36.697Z,5.20
2017-09-29T17:02:04.625Z,9.83
2017-09-29T17:04:32.136Z,4.87
2017-09-29T17:06:59.688Z,8.80
2017-09-29T17:09:27.203Z,5.17
2017-09-29T17:11:54.715Z,6.70
2017-09-29T17:14:22.244Z,5.10
2017-09-29T17:16:49.746Z,6.10
2017-09-29T17:19:17.275Z,7.57
2017-09-29T17:21:44.783Z,8.13
2017-09-29T17:24:12.335Z,5.13
2017-09-29T17:26:40.233Z,4.70
2017-09-29T17:29:07.787Z,5.53
2017-09-29T17:31:35.310Z,7.73
2017-09-29T17:34:03.230Z,7.40
2017-09-29T17:36:30.751Z,7.10
2017-09-29T17:38:58.264Z,5.80
2017-09-29T17:41:25.797Z,7.87
2017-09-29T17:43:53.299Z,7.33
2017-09-29T17:46:20.841Z,6.83
2017-09-29T17:48:48.756Z,7.00
2017-09-29T17:51:16.299Z,6.53
2017-09-29T17:53:43.826Z,6.00
2017-09-29T17:56:11.737Z,6.93
2017-09-29T17:58:40.547Z,6.10
2017-09-29T18:01:08.157Z,10.43
2017-09-29T18:03:36.228Z,6.80
2017-09-29T18:06:03.748Z,7.13
2017-09-29T18:08:32.123Z,10.23
2017-09-29T18:10:59.623Z,8.53
2017-09-29T18:13:27.130Z,6.80
2017-09-29T18:15:54.724Z,11.63
2017-09-29T18:18:22.235Z,6.40
2017-09-29T18:20:49.853Z,8.17
2017-09-29T18:23:17.752Z,7.60
2017-09-29T18:25:45.275Z,6.83
2017-09-29T18:28:12.780Z,6.30
2017-09-29T18:30:41.091Z,5.77
2017-09-29T18:33:09.515Z,7.20
2017-09-29T18:35:37.051Z,8.50
2017-09-29T18:38:04.560Z,9.70
2017-09-29T18:40:37.640Z,7.87
2017-09-29T18:43:10.780Z,6.87
2017-09-29T18:45:40.941Z,7.53
2017-09-29T18:48:08.451Z,7.27
2017-09-29T18:50:35.979Z,6.43
2017-09-29T18:53:03.900Z,7.60
2017-09-29T18:55:31.414Z,6.47
2017-09-29T18:57:58.957Z,9.87
2017-09-29T19:00:26.467Z,6.70
2017-09-29T19:02:54.390Z,6.23
2017-09-29T19:05:21.902Z,6.77
2017-09-29T19:07:49.474Z,9.07
2017-09-29T19:10:16.991Z,7.63
2017-09-29T19:12:44.500Z,9.47
2017-09-29T19:15:12.415Z,8.13
2017-09-29T19:17:40.559Z,11.83
2017-09-29T19:20:08.485Z,6.10
2017-09-29T19:22:36.216Z,6.67
2017-09-29T19:25:03.763Z,9.83
2017-09-29T19:27:31.285Z,7.00
2017-09-29T19:29:58.823Z,7.17
2017-09-29T19:32:26.343Z,7.97
2017-09-29T19:34:53.848Z,7.37
2017-09-29T19:37:21.371Z,6.33
2017-09-29T19:39:48.882Z,8.87
2017-09-29T19:42:16.434Z,6.13
2017-09-29T19:44:43.939Z,7.90
2017-09-29T19:47:11.960Z,6.10
2017-09-29T19:49:40.531Z,7.23
2017-09-29T19:52:08.078Z,8.13
2017-09-29T19:54:35.751Z,7.10
2017-09-29T19:57:03.656Z,6.20
2017-09-29T19:59:31.187Z,8.30
2017-09-29T20:01:58.694Z,6.80
2017-09-29T20:04:26.224Z,6.20
2017-09-29T20:06:54.143Z,8.93
2017-09-29T20:09:21.704Z,7.10
2017-09-29T20:11:49.611Z,7.50
2017-09-29T20:14:17.152Z,8.63
2017-09-29T20:16:44.669Z,10.53
2017-09-29T20:19:12.178Z,8.80
2017-09-29T20:21:41.375Z,11.17
2017-09-29T20:24:10.155Z,7.33
2017-09-29T20:26:37.687Z,6.90
2017-09-29T20:29:05.194Z,8.43
2017-09-29T20:31:32.716Z,5.83
2017-09-29T20:34:00.272Z,5.70
2017-09-29T20:36:27.796Z,9.43
2017-09-29T20:38:55.320Z,6.10
2017-09-29T20:41:22.892Z,7.20
2017-09-29T20:43:50.408Z,7.30
2017-09-29T20:46:17.928Z,6.43
2017-09-29T20:48:45.452Z,8.40
2017-09-29T20:51:13.272Z,6.63
2017-09-29T20:53:40.801Z,6.60
2017-09-29T20:56:08.315Z,7.10
2017-09-29T20:58:36.268Z,6.23
2017-09-29T21:01:03.771Z,6.23
2017-09-29T21:03:31.290Z,6.93
2017-09-29T21:05:59.187Z,5.97
2017-09-29T21:08:27.165Z,5.97
2017-09-29T21:10:54.671Z,6.63
2017-09-29T21:13:22.572Z,9.20
2017-09-29T21:15:51.131Z,6.60
2017-09-29T21:18:18.650Z,8.57
2017-09-29T21:20:46.179Z,12.13
2017-09-29T21:23:13.703Z,7.20
2017-09-29T21:25:41.232Z,11.70
2017-09-29T21:28:08.766Z,9.37
2017-09-29T21:30:36.291Z,7.20
2017-09-29T21:33:04.204Z,8.20
2017-09-29T21:35:31.763Z,5.87
2017-09-29T21:37:59.275Z,6.70
2017-09-29T21:40:27.179Z,7.57
2017-09-29T21:42:54.704Z,8.87
2017-09-29T21:45:22.211Z,7.97
2017-09-29T21:47:49.731Z,9.30
2017-09-29T21:50:17.645Z,8.10
2017-09-29T21:52:45.176Z,7.93
2017-09-29T21:55:12.681Z,7.37
2017-09-29T21:57:41.499Z,5.50
2017-09-29T22:00:10.047Z,9.50
2017-09-29T22:02:37.991Z,6.33
2017-09-29T22:05:05.495Z,7.83
2017-09-29T22:07:33.032Z,8.27
2017-09-29T22:10:00.979Z,10.20
2017-09-29T22:12:28.504Z,5.83
2017-09-29T22:14:56.456Z,6.70
2017-09-29T22:17:23.971Z,5.50
2017-09-29T22:19:51.508Z,8.10
2017-09-29T22:22:19.018Z,7.63
2017-09-29T22:24:46.543Z,7.93
2017-09-29T22:27:14.395Z,9.93
2017-09-29T22:29:41.939Z,12.70
2017-09-29T22:32:09.860Z,6.90
2017-09-29T22:34:37.381Z,7.83
2017-09-29T22:37:04.903Z,6.90
2017-09-29T22:39:32.412Z,6.10
2017-09-29T22:41:59.943Z,6.83
2017-09-29T22:44:27.463Z,9.40
2017-09-29T22:46:54.992Z,9.70
2017-09-29T22:49:22.505Z,11.43
2017-09-29T22:51:50.015Z,6.20
2017-09-29T22:54:17.567Z,6.00
2017-09-29T22:56:45.086Z,8.23
2017-09-29T22:59:12.627Z,6.53
2017-09-29T23:01:40.981Z,7.27
2017-09-29T23:04:09.748Z,8.27
2017-09-29T23:06:37.343Z,7.13
2017-09-29T23:09:05.280Z,8.80
2017-09-29T23:11:32.788Z,7.70
2017-09-29T23:14:00.295Z,8.43
2017-09-29T23:16:27.819Z,9.03
2017-09-29T23:18:55.330Z,7.47
2017-09-29T23:21:23.249Z,8.70
2017-09-29T23:23:50.772Z,12.33
2017-09-29T23:26:18.304Z,7.63
2017-09-29T23:28:45.818Z,9.00
2017-09-29T23:31:13.349Z,10.00
2017-09-29T23:33:40.872Z,10.07
2017-09-29T23:36:08.385Z,9.50
2017-09-29T23:38:36.560Z,8.13
2017-09-29T23:41:04.472Z,9.30
2017-09-29T23:43:31.992Z,9.60
2017-09-29T23:45:59.500Z,9.03
2017-09-29T23:48:27.043Z,7.37
2017-09-29T23:50:54.557Z,7.00
2017-09-29T23:53:22.072Z,6.80
2017-09-29T23:55:49.600Z,6.63
2017-09-29T23:58:17.127Z,6.80
